KBTP/BTP METAR and TAF weather

Enter ICAO airport designator
Station Type Date Time Source
KBTP METAR 2020/07/06 22:56 UTC NOAA

KBTP 062256Z AUTO VRB04KT 10SM CLR 32/16 A3002 RMK AO2 SLP160 T03170161 PNO $


Station Type Date Time Source
KBTP Decoded METAR 2020/07/06 22:56 UTC NOAA

Butler, Butler County Airport/K W Scholter Field, PA, United States (KBTP) 40-47N 079-57W
Jul 06, 2020 - 06:56 PM EDT / 2020.07.06 2256 UTC
Wind: Variable at 5 MPH (4 KT):0
Visibility: 10 mile(s):0
Sky conditions: clear
Temperature: 89.1 F (31.7 C)
Dew Point: 61.0 F (16.1 C)
Relative Humidity: 39%
Pressure (altimeter): 30.02 in. Hg (1016 hPa)
ob: KBTP 062256Z AUTO VRB04KT 10SM CLR 32/16 A3002 RMK AO2 SLP160 T03170161 PNO
cycle: 23

Station Type Date Time Source
KBTP TAF UTC NOAA

Error!

Example: see airport list